sensor_id;sensor_type;location;lat;lon;timestamp;P1;durP1;ratioP1;P2;durP2;ratioP2
7939;SDS011;4015;48.888;9.226;2023-05-16T00:02:21;10.40;;;9.40;;
7939;SDS011;4015;48.888;9.226;2023-05-16T00:04:46;11.00;;;9.93;;
7939;SDS011;4015;48.888;9.226;2023-05-16T00:07:12;10.93;;;9.83;;
7939;SDS011;4015;48.888;9.226;2023-05-16T00:09:38;12.07;;;10.60;;
7939;SDS011;4015;48.888;9.226;2023-05-16T00:12:03;11.20;;;9.67;;
7939;SDS011;4015;48.888;9.226;2023-05-16T00:14:29;14.63;;;11.30;;
7939;SDS011;4015;48.888;9.226;2023-05-16T00:16:55;15.00;;;12.37;;
7939;SDS011;4015;48.888;9.226;2023-05-16T00:19:23;13.87;;;11.13;;
7939;SDS011;4015;48.888;9.226;2023-05-16T00:21:48;10.53;;;9.50;;
7939;SDS011;4015;48.888;9.226;2023-05-16T00:24:14;10.37;;;9.00;;
7939;SDS011;4015;48.888;9.226;2023-05-16T00:26:39;9.23;;;8.33;;
7939;SDS011;4015;48.888;9.226;2023-05-16T00:29:05;10.73;;;8.63;;
7939;SDS011;4015;48.888;9.226;2023-05-16T00:31:31;9.83;;;8.83;;
7939;SDS011;4015;48.888;9.226;2023-05-16T00:33:56;11.37;;;9.33;;
7939;SDS011;4015;48.888;9.226;2023-05-16T00:36:22;10.80;;;9.63;;
7939;SDS011;4015;48.888;9.226;2023-05-16T00:38:47;10.67;;;9.57;;
7939;SDS011;4015;48.888;9.226;2023-05-16T00:41:12;10.83;;;9.80;;
7939;SDS011;4015;48.888;9.226;2023-05-16T00:43:38;11.87;;;10.67;;
7939;SDS011;4015;48.888;9.226;2023-05-16T00:46:04;11.70;;;10.50;;
7939;SDS011;4015;48.888;9.226;2023-05-16T00:48:30;12.23;;;11.00;;
7939;SDS011;4015;48.888;9.226;2023-05-16T00:50:56;10.33;;;9.30;;
7939;SDS011;4015;48.888;9.226;2023-05-16T00:53:22;15.30;;;11.03;;
7939;SDS011;4015;48.888;9.226;2023-05-16T00:55:48;12.00;;;10.67;;
7939;SDS011;4015;48.888;9.226;2023-05-16T00:58:14;11.17;;;9.93;;
7939;SDS011;4015;48.888;9.226;2023-05-16T01:00:40;14.37;;;9.90;;
7939;SDS011;4015;48.888;9.226;2023-05-16T01:03:06;12.47;;;10.67;;
7939;SDS011;4015;48.888;9.226;2023-05-16T01:05:33;12.40;;;10.50;;
7939;SDS011;4015;48.888;9.226;2023-05-16T01:07:58;13.30;;;11.47;;
7939;SDS011;4015;48.888;9.226;2023-05-16T01:10:23;13.53;;;11.90;;
7939;SDS011;4015;48.888;9.226;2023-05-16T01:15:43;14.67;;;12.73;;
7939;SDS011;4015;48.888;9.226;2023-05-16T01:18:20;15.00;;;13.13;;
7939;SDS011;4015;48.888;9.226;2023-05-16T01:20:56;13.83;;;11.73;;
7939;SDS011;4015;48.888;9.226;2023-05-16T01:26:21;13.37;;;12.00;;
7939;SDS011;4015;48.888;9.226;2023-05-16T01:28:49;14.30;;;12.33;;
7939;SDS011;4015;48.888;9.226;2023-05-16T01:31:16;13.17;;;11.77;;
7939;SDS011;4015;48.888;9.226;2023-05-16T01:33:42;14.40;;;13.00;;
7939;SDS011;4015;48.888;9.226;2023-05-16T01:41:46;15.50;;;13.63;;
7939;SDS011;4015;48.888;9.226;2023-05-16T01:44:35;15.97;;;14.23;;
7939;SDS011;4015;48.888;9.226;2023-05-16T01:47:06;15.47;;;13.60;;
7939;SDS011;4015;48.888;9.226;2023-05-16T01:49:57;14.30;;;12.80;;
7939;SDS011;4015;48.888;9.226;2023-05-16T01:52:35;14.67;;;13.03;;
7939;SDS011;4015;48.888;9.226;2023-05-16T01:55:01;12.00;;;10.80;;
7939;SDS011;4015;48.888;9.226;2023-05-16T01:57:28;12.70;;;11.40;;
7939;SDS011;4015;48.888;9.226;2023-05-16T01:59:56;13.83;;;12.33;;
7939;SDS011;4015;48.888;9.226;2023-05-16T02:02:22;17.00;;;13.50;;
7939;SDS011;4015;48.888;9.226;2023-05-16T02:04:48;15.87;;;14.03;;
7939;SDS011;4015;48.888;9.226;2023-05-16T02:07:14;16.13;;;13.90;;
7939;SDS011;4015;48.888;9.226;2023-05-16T02:09:40;21.60;;;17.60;;
7939;SDS011;4015;48.888;9.226;2023-05-16T02:12:05;17.80;;;14.97;;
7939;SDS011;4015;48.888;9.226;2023-05-16T02:14:31;22.40;;;14.70;;
7939;SDS011;4015;48.888;9.226;2023-05-16T02:16:56;22.07;;;16.83;;
7939;SDS011;4015;48.888;9.226;2023-05-16T02:19:22;22.33;;;18.93;;
7939;SDS011;4015;48.888;9.226;2023-05-16T02:21:47;23.13;;;19.77;;
7939;SDS011;4015;48.888;9.226;2023-05-16T02:24:12;27.67;;;21.63;;
7939;SDS011;4015;48.888;9.226;2023-05-16T02:26:38;31.13;;;23.13;;
7939;SDS011;4015;48.888;9.226;2023-05-16T02:29:04;28.57;;;21.43;;
7939;SDS011;4015;48.888;9.226;2023-05-16T02:31:30;30.77;;;24.33;;
7939;SDS011;4015;48.888;9.226;2023-05-16T02:33:58;31.60;;;23.80;;
7939;SDS011;4015;48.888;9.226;2023-05-16T02:36:24;31.87;;;24.57;;
7939;SDS011;4015;48.888;9.226;2023-05-16T02:38:49;33.43;;;24.07;;
7939;SDS011;4015;48.888;9.226;2023-05-16T02:41:15;31.73;;;25.23;;
7939;SDS011;4015;48.888;9.226;2023-05-16T02:43:40;31.17;;;24.97;;
7939;SDS011;4015;48.888;9.226;2023-05-16T02:46:19;34.63;;;25.57;;
7939;SDS011;4015;48.888;9.226;2023-05-16T02:48:48;33.80;;;25.03;;
7939;SDS011;4015;48.888;9.226;2023-05-16T02:51:15;29.83;;;25.67;;
7939;SDS011;4015;48.888;9.226;2023-05-16T02:53:40;33.17;;;24.73;;
7939;SDS011;4015;48.888;9.226;2023-05-16T02:56:05;31.37;;;24.83;;
7939;SDS011;4015;48.888;9.226;2023-05-16T02:58:31;35.87;;;26.00;;
7939;SDS011;4015;48.888;9.226;2023-05-16T03:00:57;31.47;;;24.73;;
7939;SDS011;4015;48.888;9.226;2023-05-16T03:03:22;34.43;;;26.00;;
7939;SDS011;4015;48.888;9.226;2023-05-16T03:05:48;31.77;;;24.70;;
7939;SDS011;4015;48.888;9.226;2023-05-16T03:08:14;31.50;;;25.27;;
7939;SDS011;4015;48.888;9.226;2023-05-16T03:10:39;32.80;;;26.20;;
7939;SDS011;4015;48.888;9.226;2023-05-16T03:13:04;35.07;;;26.43;;
7939;SDS011;4015;48.888;9.226;2023-05-16T03:15:30;35.53;;;27.20;;
7939;SDS011;4015;48.888;9.226;2023-05-16T03:17:55;36.57;;;27.97;;
7939;SDS011;4015;48.888;9.226;2023-05-16T03:20:21;33.07;;;26.53;;
7939;SDS011;4015;48.888;9.226;2023-05-16T03:22:46;36.70;;;27.37;;
7939;SDS011;4015;48.888;9.226;2023-05-16T03:25:12;36.73;;;26.53;;
7939;SDS011;4015;48.888;9.226;2023-05-16T03:27:37;34.80;;;25.40;;
7939;SDS011;4015;48.888;9.226;2023-05-16T03:30:03;35.40;;;25.57;;
7939;SDS011;4015;48.888;9.226;2023-05-16T03:32:29;37.33;;;26.77;;
7939;SDS011;4015;48.888;9.226;2023-05-16T03:34:54;34.87;;;25.37;;
7939;SDS011;4015;48.888;9.226;2023-05-16T03:37:19;35.63;;;26.77;;
7939;SDS011;4015;48.888;9.226;2023-05-16T03:39:45;35.03;;;25.77;;
7939;SDS011;4015;48.888;9.226;2023-05-16T03:42:10;34.90;;;27.00;;
7939;SDS011;4015;48.888;9.226;2023-05-16T03:44:36;32.50;;;25.37;;
7939;SDS011;4015;48.888;9.226;2023-05-16T03:47:01;37.23;;;27.87;;
7939;SDS011;4015;48.888;9.226;2023-05-16T03:49:27;41.80;;;28.90;;
7939;SDS011;4015;48.888;9.226;2023-05-16T03:51:52;41.00;;;28.57;;
7939;SDS011;4015;48.888;9.226;2023-05-16T03:54:18;39.90;;;26.93;;
7939;SDS011;4015;48.888;9.226;2023-05-16T03:56:43;41.83;;;29.63;;
7939;SDS011;4015;48.888;9.226;2023-05-16T03:59:08;40.10;;;28.90;;
7939;SDS011;4015;48.888;9.226;2023-05-16T04:01:33;44.63;;;28.57;;
7939;SDS011;4015;48.888;9.226;2023-05-16T04:03:59;43.60;;;29.70;;
7939;SDS011;4015;48.888;9.226;2023-05-16T04:06:24;42.37;;;29.07;;
7939;SDS011;4015;48.888;9.226;2023-05-16T04:08:49;52.80;;;31.07;;
7939;SDS011;4015;48.888;9.226;2023-05-16T04:11:15;43.57;;;30.13;;
7939;SDS011;4015;48.888;9.226;2023-05-16T04:13:40;43.90;;;29.97;;
7939;SDS011;4015;48.888;9.226;2023-05-16T04:16:06;42.83;;;30.23;;
7939;SDS011;4015;48.888;9.226;2023-05-16T04:18:31;42.03;;;28.80;;
7939;SDS011;4015;48.888;9.226;2023-05-16T04:20:57;44.77;;;30.57;;
7939;SDS011;4015;48.888;9.226;2023-05-16T04:23:22;42.07;;;29.63;;
7939;SDS011;4015;48.888;9.226;2023-05-16T04:25:47;41.33;;;28.43;;
7939;SDS011;4015;48.888;9.226;2023-05-16T04:28:14;41.33;;;28.37;;
7939;SDS011;4015;48.888;9.226;2023-05-16T04:30:39;41.20;;;28.57;;
7939;SDS011;4015;48.888;9.226;2023-05-16T04:33:05;45.03;;;30.37;;
7939;SDS011;4015;48.888;9.226;2023-05-16T04:35:31;43.23;;;30.00;;
7939;SDS011;4015;48.888;9.226;2023-05-16T04:37:57;46.47;;;31.07;;
7939;SDS011;4015;48.888;9.226;2023-05-16T04:40:22;40.33;;;28.63;;
7939;SDS011;4015;48.888;9.226;2023-05-16T04:42:49;43.73;;;30.10;;
7939;SDS011;4015;48.888;9.226;2023-05-16T04:45:15;43.03;;;29.43;;
7939;SDS011;4015;48.888;9.226;2023-05-16T04:47:40;41.23;;;29.73;;
7939;SDS011;4015;48.888;9.226;2023-05-16T04:50:06;44.10;;;30.03;;
7939;SDS011;4015;48.888;9.226;2023-05-16T04:52:33;38.63;;;28.53;;
7939;SDS011;4015;48.888;9.226;2023-05-16T04:54:58;40.70;;;28.30;;
7939;SDS011;4015;48.888;9.226;2023-05-16T04:57:24;44.50;;;27.90;;
7939;SDS011;4015;48.888;9.226;2023-05-16T04:59:50;42.87;;;28.57;;
7939;SDS011;4015;48.888;9.226;2023-05-16T05:02:15;41.00;;;28.50;;
7939;SDS011;4015;48.888;9.226;2023-05-16T05:04:40;39.63;;;27.30;;
7939;SDS011;4015;48.888;9.226;2023-05-16T05:07:06;41.20;;;28.20;;
7939;SDS011;4015;48.888;9.226;2023-05-16T05:09:32;46.63;;;27.00;;
7939;SDS011;4015;48.888;9.226;2023-05-16T05:11:57;36.80;;;27.47;;
7939;SDS011;4015;48.888;9.226;2023-05-16T05:14:22;36.90;;;26.07;;
7939;SDS011;4015;48.888;9.226;2023-05-16T05:16:48;36.43;;;26.43;;
7939;SDS011;4015;48.888;9.226;2023-05-16T05:19:13;35.83;;;25.73;;
7939;SDS011;4015;48.888;9.226;2023-05-16T05:21:38;33.77;;;25.83;;
7939;SDS011;4015;48.888;9.226;2023-05-16T05:24:04;38.77;;;26.30;;
7939;SDS011;4015;48.888;9.226;2023-05-16T05:26:30;34.47;;;25.83;;
7939;SDS011;4015;48.888;9.226;2023-05-16T05:28:55;32.97;;;25.33;;
7939;SDS011;4015;48.888;9.226;2023-05-16T05:31:21;33.20;;;23.77;;
7939;SDS011;4015;48.888;9.226;2023-05-16T05:33:46;38.03;;;26.53;;
7939;SDS011;4015;48.888;9.226;2023-05-16T05:36:11;40.40;;;26.17;;
7939;SDS011;4015;48.888;9.226;2023-05-16T05:38:37;33.47;;;24.93;;
7939;SDS011;4015;48.888;9.226;2023-05-16T05:41:03;36.50;;;26.23;;
7939;SDS011;4015;48.888;9.226;2023-05-16T05:43:29;35.60;;;26.47;;
7939;SDS011;4015;48.888;9.226;2023-05-16T05:45:54;33.97;;;24.53;;
7939;SDS011;4015;48.888;9.226;2023-05-16T05:48:19;31.77;;;24.07;;
7939;SDS011;4015;48.888;9.226;2023-05-16T05:50:45;31.80;;;23.17;;
7939;SDS011;4015;48.888;9.226;2023-05-16T05:53:11;30.83;;;23.23;;
7939;SDS011;4015;48.888;9.226;2023-05-16T05:55:36;33.20;;;24.60;;
7939;SDS011;4015;48.888;9.226;2023-05-16T05:58:02;31.33;;;22.37;;
7939;SDS011;4015;48.888;9.226;2023-05-16T06:00:27;28.17;;;21.70;;
7939;SDS011;4015;48.888;9.226;2023-05-16T06:02:53;28.43;;;21.50;;
7939;SDS011;4015;48.888;9.226;2023-05-16T06:05:19;27.80;;;22.63;;
7939;SDS011;4015;48.888;9.226;2023-05-16T06:07:44;28.77;;;21.70;;
7939;SDS011;4015;48.888;9.226;2023-05-16T06:10:09;26.83;;;21.60;;
7939;SDS011;4015;48.888;9.226;2023-05-16T06:12:35;32.00;;;22.87;;
7939;SDS011;4015;48.888;9.226;2023-05-16T06:15:00;29.70;;;22.03;;
7939;SDS011;4015;48.888;9.226;2023-05-16T06:17:25;30.13;;;22.20;;
7939;SDS011;4015;48.888;9.226;2023-05-16T06:19:51;29.40;;;21.97;;
7939;SDS011;4015;48.888;9.226;2023-05-16T06:22:16;29.10;;;21.43;;
7939;SDS011;4015;48.888;9.226;2023-05-16T06:24:41;27.67;;;21.73;;
7939;SDS011;4015;48.888;9.226;2023-05-16T06:27:07;27.27;;;20.50;;
7939;SDS011;4015;48.888;9.226;2023-05-16T06:29:32;29.63;;;20.33;;
7939;SDS011;4015;48.888;9.226;2023-05-16T06:31:58;28.23;;;19.37;;
7939;SDS011;4015;48.888;9.226;2023-05-16T06:34:23;27.97;;;21.63;;
7939;SDS011;4015;48.888;9.226;2023-05-16T06:36:52;28.13;;;21.73;;
7939;SDS011;4015;48.888;9.226;2023-05-16T06:39:18;25.97;;;20.10;;
7939;SDS011;4015;48.888;9.226;2023-05-16T06:41:43;25.70;;;20.20;;
7939;SDS011;4015;48.888;9.226;2023-05-16T06:44:09;28.53;;;19.37;;
7939;SDS011;4015;48.888;9.226;2023-05-16T06:46:35;24.90;;;19.77;;
7939;SDS011;4015;48.888;9.226;2023-05-16T06:49:01;24.10;;;19.30;;
7939;SDS011;4015;48.888;9.226;2023-05-16T06:51:26;23.73;;;19.07;;
7939;SDS011;4015;48.888;9.226;2023-05-16T06:53:52;22.10;;;18.33;;
7939;SDS011;4015;48.888;9.226;2023-05-16T06:56:17;25.23;;;19.83;;
7939;SDS011;4015;48.888;9.226;2023-05-16T06:58:42;22.23;;;19.23;;
7939;SDS011;4015;48.888;9.226;2023-05-16T07:01:08;27.03;;;19.40;;
7939;SDS011;4015;48.888;9.226;2023-05-16T07:03:33;22.77;;;18.10;;
7939;SDS011;4015;48.888;9.226;2023-05-16T07:05:58;25.10;;;18.60;;
7939;SDS011;4015;48.888;9.226;2023-05-16T07:08:24;23.60;;;17.43;;
7939;SDS011;4015;48.888;9.226;2023-05-16T07:10:49;22.80;;;15.97;;
7939;SDS011;4015;48.888;9.226;2023-05-16T07:13:15;20.83;;;17.17;;
7939;SDS011;4015;48.888;9.226;2023-05-16T07:15:40;19.57;;;16.10;;
7939;SDS011;4015;48.888;9.226;2023-05-16T07:18:06;18.17;;;14.10;;
7939;SDS011;4015;48.888;9.226;2023-05-16T07:20:31;19.43;;;15.20;;
7939;SDS011;4015;48.888;9.226;2023-05-16T07:22:57;17.40;;;14.77;;
7939;SDS011;4015;48.888;9.226;2023-05-16T07:25:23;19.10;;;14.73;;
7939;SDS011;4015;48.888;9.226;2023-05-16T07:27:49;20.23;;;14.53;;
7939;SDS011;4015;48.888;9.226;2023-05-16T07:30:14;14.40;;;12.90;;
7939;SDS011;4015;48.888;9.226;2023-05-16T07:32:40;16.33;;;13.17;;
7939;SDS011;4015;48.888;9.226;2023-05-16T07:35:06;15.43;;;13.77;;
7939;SDS011;4015;48.888;9.226;2023-05-16T07:37:32;14.43;;;12.73;;
7939;SDS011;4015;48.888;9.226;2023-05-16T07:39:57;16.33;;;12.93;;
7939;SDS011;4015;48.888;9.226;2023-05-16T07:42:23;15.23;;;12.47;;
7939;SDS011;4015;48.888;9.226;2023-05-16T07:44:48;13.93;;;11.93;;
7939;SDS011;4015;48.888;9.226;2023-05-16T07:47:14;12.73;;;11.32;;
7939;SDS011;4015;48.888;9.226;2023-05-16T07:49:39;13.33;;;11.83;;
7939;SDS011;4015;48.888;9.226;2023-05-16T07:52:05;14.03;;;12.53;;
7939;SDS011;4015;48.888;9.226;2023-05-16T07:54:31;14.67;;;11.47;;
7939;SDS011;4015;48.888;9.226;2023-05-16T07:56:57;15.13;;;10.67;;
7939;SDS011;4015;48.888;9.226;2023-05-16T07:59:22;12.00;;;10.80;;
7939;SDS011;4015;48.888;9.226;2023-05-16T08:01:48;13.90;;;11.23;;
7939;SDS011;4015;48.888;9.226;2023-05-16T08:04:13;14.67;;;11.67;;
7939;SDS011;4015;48.888;9.226;2023-05-16T08:06:39;12.30;;;10.90;;
7939;SDS011;4015;48.888;9.226;2023-05-16T08:09:04;12.60;;;10.87;;
7939;SDS011;4015;48.888;9.226;2023-05-16T08:11:29;12.90;;;11.10;;
7939;SDS011;4015;48.888;9.226;2023-05-16T08:13:55;11.90;;;10.70;;
7939;SDS011;4015;48.888;9.226;2023-05-16T08:16:20;12.37;;;11.07;;
7939;SDS011;4015;48.888;9.226;2023-05-16T08:18:45;15.47;;;13.80;;
7939;SDS011;4015;48.888;9.226;2023-05-16T08:21:11;12.33;;;11.10;;
7939;SDS011;4015;48.888;9.226;2023-05-16T08:23:38;12.93;;;11.52;;
7939;SDS011;4015;48.888;9.226;2023-05-16T08:26:03;13.13;;;11.50;;
7939;SDS011;4015;48.888;9.226;2023-05-16T08:28:29;13.20;;;11.70;;
7939;SDS011;4015;48.888;9.226;2023-05-16T08:30:55;12.87;;;11.00;;
7939;SDS011;4015;48.888;9.226;2023-05-16T08:33:20;14.47;;;12.67;;
7939;SDS011;4015;48.888;9.226;2023-05-16T08:35:45;13.57;;;12.17;;
7939;SDS011;4015;48.888;9.226;2023-05-16T08:38:12;15.40;;;13.13;;
7939;SDS011;4015;48.888;9.226;2023-05-16T08:40:38;14.17;;;12.67;;
7939;SDS011;4015;48.888;9.226;2023-05-16T08:43:04;15.37;;;13.63;;
7939;SDS011;4015;48.888;9.226;2023-05-16T08:45:30;18.77;;;14.43;;
7939;SDS011;4015;48.888;9.226;2023-05-16T08:47:55;20.27;;;14.20;;
7939;SDS011;4015;48.888;9.226;2023-05-16T08:50:23;16.63;;;14.30;;
7939;SDS011;4015;48.888;9.226;2023-05-16T08:52:50;17.03;;;14.17;;
7939;SDS011;4015;48.888;9.226;2023-05-16T08:55:16;19.13;;;14.67;;
7939;SDS011;4015;48.888;9.226;2023-05-16T08:57:44;17.10;;;13.63;;
7939;SDS011;4015;48.888;9.226;2023-05-16T09:00:10;24.57;;;20.07;;
7939;SDS011;4015;48.888;9.226;2023-05-16T09:02:41;19.10;;;15.93;;
7939;SDS011;4015;48.888;9.226;2023-05-16T09:05:07;17.80;;;15.23;;
7939;SDS011;4015;48.888;9.226;2023-05-16T09:07:35;22.07;;;16.40;;
7939;SDS011;4015;48.888;9.226;2023-05-16T09:10:01;19.83;;;15.13;;
7939;SDS011;4015;48.888;9.226;2023-05-16T09:12:26;18.37;;;16.17;;
7939;SDS011;4015;48.888;9.226;2023-05-16T09:14:51;21.23;;;16.00;;
7939;SDS011;4015;48.888;9.226;2023-05-16T09:17:17;19.70;;;15.53;;
7939;SDS011;4015;48.888;9.226;2023-05-16T09:19:43;20.93;;;15.60;;
7939;SDS011;4015;48.888;9.226;2023-05-16T09:22:10;19.83;;;15.93;;
7939;SDS011;4015;48.888;9.226;2023-05-16T09:24:37;17.53;;;15.20;;
7939;SDS011;4015;48.888;9.226;2023-05-16T09:27:07;21.98;;;15.77;;
7939;SDS011;4015;48.888;9.226;2023-05-16T09:29:46;18.83;;;14.97;;
7939;SDS011;4015;48.888;9.226;2023-05-16T09:32:15;17.97;;;15.10;;
7939;SDS011;4015;48.888;9.226;2023-05-16T09:34:52;19.30;;;15.83;;
7939;SDS011;4015;48.888;9.226;2023-05-16T09:37:18;21.27;;;16.20;;
7939;SDS011;4015;48.888;9.226;2023-05-16T09:39:45;24.83;;;17.73;;
7939;SDS011;4015;48.888;9.226;2023-05-16T09:42:12;22.33;;;16.20;;
7939;SDS011;4015;48.888;9.226;2023-05-16T09:44:38;19.87;;;15.77;;
7939;SDS011;4015;48.888;9.226;2023-05-16T09:47:04;21.77;;;17.27;;
7939;SDS011;4015;48.888;9.226;2023-05-16T09:49:29;18.60;;;15.80;;
7939;SDS011;4015;48.888;9.226;2023-05-16T09:51:55;20.20;;;16.07;;
7939;SDS011;4015;48.888;9.226;2023-05-16T09:54:33;22.83;;;18.97;;
7939;SDS011;4015;48.888;9.226;2023-05-16T09:56:59;20.00;;;16.67;;
7939;SDS011;4015;48.888;9.226;2023-05-16T09:59:28;21.52;;;17.00;;
7939;SDS011;4015;48.888;9.226;2023-05-16T10:02:04;24.95;;;17.23;;
7939;SDS011;4015;48.888;9.226;2023-05-16T10:04:32;20.08;;;15.95;;
7939;SDS011;4015;48.888;9.226;2023-05-16T10:06:58;19.40;;;15.35;;
7939;SDS011;4015;48.888;9.226;2023-05-16T10:09:27;19.00;;;15.18;;
7939;SDS011;4015;48.888;9.226;2023-05-16T10:11:54;20.75;;;16.80;;
7939;SDS011;4015;48.888;9.226;2023-05-16T10:14:20;19.48;;;16.10;;
7939;SDS011;4015;48.888;9.226;2023-05-16T10:16:47;17.98;;;15.65;;
7939;SDS011;4015;48.888;9.226;2023-05-16T10:19:14;17.40;;;14.93;;
7939;SDS011;4015;48.888;9.226;2023-05-16T10:21:42;18.38;;;15.93;;
7939;SDS011;4015;48.888;9.226;2023-05-16T10:24:12;18.20;;;15.85;;
7939;SDS011;4015;48.888;9.226;2023-05-16T10:26:42;20.00;;;15.18;;
7939;SDS011;4015;48.888;9.226;2023-05-16T10:29:07;18.13;;;15.27;;
7939;SDS011;4015;48.888;9.226;2023-05-16T10:31:33;20.25;;;15.15;;
7939;SDS011;4015;48.888;9.226;2023-05-16T10:34:00;20.92;;;14.77;;
7939;SDS011;4015;48.888;9.226;2023-05-16T10:36:26;16.98;;;13.77;;
7939;SDS011;4015;48.888;9.226;2023-05-16T10:38:51;17.98;;;14.45;;
7939;SDS011;4015;48.888;9.226;2023-05-16T10:41:18;16.42;;;13.98;;
7939;SDS011;4015;48.888;9.226;2023-05-16T10:43:54;17.90;;;13.15;;
7939;SDS011;4015;48.888;9.226;2023-05-16T10:46:21;18.10;;;13.32;;
7939;SDS011;4015;48.888;9.226;2023-05-16T10:48:47;18.27;;;13.70;;
7939;SDS011;4015;48.888;9.226;2023-05-16T10:53:51;17.43;;;13.63;;
7939;SDS011;4015;48.888;9.226;2023-05-16T10:56:24;20.00;;;13.67;;
7939;SDS011;4015;48.888;9.226;2023-05-16T10:58:52;16.20;;;13.03;;
7939;SDS011;4015;48.888;9.226;2023-05-16T11:06:26;17.13;;;11.60;;
7939;SDS011;4015;48.888;9.226;2023-05-16T11:14:23;11.40;;;8.93;;
7939;SDS011;4015;48.888;9.226;2023-05-16T11:24:50;11.27;;;8.93;;
7939;SDS011;4015;48.888;9.226;2023-05-16T11:27:33;12.93;;;8.80;;
7939;SDS011;4015;48.888;9.226;2023-05-16T11:30:10;11.33;;;8.53;;
7939;SDS011;4015;48.888;9.226;2023-05-16T11:32:40;10.77;;;8.67;;
7939;SDS011;4015;48.888;9.226;2023-05-16T11:35:08;9.67;;;8.23;;
7939;SDS011;4015;48.888;9.226;2023-05-16T11:37:35;10.37;;;8.70;;
7939;SDS011;4015;48.888;9.226;2023-05-16T11:40:02;11.87;;;8.20;;
7939;SDS011;4015;48.888;9.226;2023-05-16T11:42:33;8.70;;;7.50;;
7939;SDS011;4015;48.888;9.226;2023-05-16T11:45:17;9.60;;;8.23;;
7939;SDS011;4015;48.888;9.226;2023-05-16T11:47:46;10.20;;;8.07;;
7939;SDS011;4015;48.888;9.226;2023-05-16T11:50:18;9.00;;;7.33;;
7939;SDS011;4015;48.888;9.226;2023-05-16T11:52:47;8.90;;;7.07;;
7939;SDS011;4015;48.888;9.226;2023-05-16T11:55:18;8.30;;;6.97;;
7939;SDS011;4015;48.888;9.226;2023-05-16T11:57:45;7.17;;;6.43;;
7939;SDS011;4015;48.888;9.226;2023-05-16T12:00:15;9.47;;;6.80;;
7939;SDS011;4015;48.888;9.226;2023-05-16T12:02:45;6.20;;;5.60;;
7939;SDS011;4015;48.888;9.226;2023-05-16T12:05:12;7.27;;;6.37;;
7939;SDS011;4015;48.888;9.226;2023-05-16T12:07:38;8.10;;;6.87;;
7939;SDS011;4015;48.888;9.226;2023-05-16T12:10:08;7.43;;;5.50;;
7939;SDS011;4015;48.888;9.226;2023-05-16T12:12:35;6.73;;;5.37;;
7939;SDS011;4015;48.888;9.226;2023-05-16T12:15:03;8.60;;;5.60;;
7939;SDS011;4015;48.888;9.226;2023-05-16T12:17:30;6.00;;;5.40;;
7939;SDS011;4015;48.888;9.226;2023-05-16T12:19:57;5.30;;;4.80;;
7939;SDS011;4015;48.888;9.226;2023-05-16T12:22:23;6.60;;;4.57;;
7939;SDS011;4015;48.888;9.226;2023-05-16T12:24:49;9.17;;;8.03;;
7939;SDS011;4015;48.888;9.226;2023-05-16T12:27:25;6.97;;;6.27;;
7939;SDS011;4015;48.888;9.226;2023-05-16T12:29:53;6.33;;;4.93;;
7939;SDS011;4015;48.888;9.226;2023-05-16T12:32:22;5.47;;;4.90;;
7939;SDS011;4015;48.888;9.226;2023-05-16T12:34:48;4.60;;;4.17;;
7939;SDS011;4015;48.888;9.226;2023-05-16T12:37:17;5.20;;;4.70;;
7939;SDS011;4015;48.888;9.226;2023-05-16T12:39:43;4.83;;;4.07;;
7939;SDS011;4015;48.888;9.226;2023-05-16T12:42:11;4.43;;;4.00;;
7939;SDS011;4015;48.888;9.226;2023-05-16T12:44:37;4.40;;;4.00;;
7939;SDS011;4015;48.888;9.226;2023-05-16T12:47:03;4.10;;;3.70;;
7939;SDS011;4015;48.888;9.226;2023-05-16T12:49:35;64.30;;;47.90;;
7939;SDS011;4015;48.888;9.226;2023-05-16T12:52:01;3.80;;;3.50;;
7939;SDS011;4015;48.888;9.226;2023-05-16T12:54:29;3.30;;;3.00;;
7939;SDS011;4015;48.888;9.226;2023-05-16T12:56:55;2.97;;;2.70;;
7939;SDS011;4015;48.888;9.226;2023-05-16T12:59:20;3.37;;;3.07;;
7939;SDS011;4015;48.888;9.226;2023-05-16T13:01:46;3.57;;;3.03;;
7939;SDS011;4015;48.888;9.226;2023-05-16T13:04:11;3.60;;;3.27;;
7939;SDS011;4015;48.888;9.226;2023-05-16T13:06:42;3.27;;;2.93;;
7939;SDS011;4015;48.888;9.226;2023-05-16T13:09:08;10.33;;;3.13;;
7939;SDS011;4015;48.888;9.226;2023-05-16T13:11:35;3.47;;;2.90;;
7939;SDS011;4015;48.888;9.226;2023-05-16T13:14:00;3.07;;;2.77;;
7939;SDS011;4015;48.888;9.226;2023-05-16T13:16:25;2.73;;;2.53;;
7939;SDS011;4015;48.888;9.226;2023-05-16T13:18:51;3.00;;;2.80;;
7939;SDS011;4015;48.888;9.226;2023-05-16T13:21:16;6.27;;;2.77;;
7939;SDS011;4015;48.888;9.226;2023-05-16T13:23:41;3.53;;;2.70;;
7939;SDS011;4015;48.888;9.226;2023-05-16T13:26:07;2.70;;;2.50;;
7939;SDS011;4015;48.888;9.226;2023-05-16T13:28:33;2.60;;;2.40;;
7939;SDS011;4015;48.888;9.226;2023-05-16T13:30:58;4.97;;;3.60;;
7939;SDS011;4015;48.888;9.226;2023-05-16T13:33:24;3.03;;;2.73;;
7939;SDS011;4015;48.888;9.226;2023-05-16T13:35:50;2.80;;;2.50;;
7939;SDS011;4015;48.888;9.226;2023-05-16T13:38:15;3.20;;;2.50;;
7939;SDS011;4015;48.888;9.226;2023-05-16T13:40:41;4.80;;;2.50;;
7939;SDS011;4015;48.888;9.226;2023-05-16T13:43:06;3.80;;;2.73;;
7939;SDS011;4015;48.888;9.226;2023-05-16T13:45:32;4.67;;;3.87;;
7939;SDS011;4015;48.888;9.226;2023-05-16T13:47:57;3.20;;;2.40;;
7939;SDS011;4015;48.888;9.226;2023-05-16T13:50:22;2.77;;;2.50;;
7939;SDS011;4015;48.888;9.226;2023-05-16T13:52:48;3.50;;;2.70;;
7939;SDS011;4015;48.888;9.226;2023-05-16T13:55:13;3.67;;;2.90;;
7939;SDS011;4015;48.888;9.226;2023-05-16T13:57:38;3.93;;;2.87;;
7939;SDS011;4015;48.888;9.226;2023-05-16T14:00:04;2.90;;;2.70;;
7939;SDS011;4015;48.888;9.226;2023-05-16T14:02:36;4.00;;;2.97;;
7939;SDS011;4015;48.888;9.226;2023-05-16T14:05:01;3.77;;;3.00;;
7939;SDS011;4015;48.888;9.226;2023-05-16T14:07:27;3.73;;;2.70;;
7939;SDS011;4015;48.888;9.226;2023-05-16T14:09:52;2.97;;;2.50;;
7939;SDS011;4015;48.888;9.226;2023-05-16T14:12:18;3.10;;;2.40;;
7939;SDS011;4015;48.888;9.226;2023-05-16T14:14:43;6.03;;;3.00;;
7939;SDS011;4015;48.888;9.226;2023-05-16T14:17:09;3.93;;;2.77;;
7939;SDS011;4015;48.888;9.226;2023-05-16T14:19:35;5.23;;;2.57;;
7939;SDS011;4015;48.888;9.226;2023-05-16T14:22:01;2.93;;;2.30;;
7939;SDS011;4015;48.888;9.226;2023-05-16T14:24:26;4.03;;;2.60;;
7939;SDS011;4015;48.888;9.226;2023-05-16T14:26:52;3.43;;;2.20;;
7939;SDS011;4015;48.888;9.226;2023-05-16T14:29:19;2.90;;;2.60;;
7939;SDS011;4015;48.888;9.226;2023-05-16T14:31:44;2.90;;;2.57;;
7939;SDS011;4015;48.888;9.226;2023-05-16T14:34:11;2.83;;;2.33;;
7939;SDS011;4015;48.888;9.226;2023-05-16T14:36:36;2.87;;;2.23;;
7939;SDS011;4015;48.888;9.226;2023-05-16T14:39:01;2.30;;;1.67;;
7939;SDS011;4015;48.888;9.226;2023-05-16T14:41:27;4.17;;;1.93;;
7939;SDS011;4015;48.888;9.226;2023-05-16T14:43:53;3.87;;;1.90;;
7939;SDS011;4015;48.888;9.226;2023-05-16T14:46:19;1.53;;;1.43;;
7939;SDS011;4015;48.888;9.226;2023-05-16T14:48:44;2.33;;;1.63;;
7939;SDS011;4015;48.888;9.226;2023-05-16T14:51:09;3.87;;;1.53;;
7939;SDS011;4015;48.888;9.226;2023-05-16T14:53:35;3.93;;;2.53;;
7939;SDS011;4015;48.888;9.226;2023-05-16T14:56:01;2.43;;;1.57;;
7939;SDS011;4015;48.888;9.226;2023-05-16T14:58:27;2.07;;;1.30;;
7939;SDS011;4015;48.888;9.226;2023-05-16T15:00:53;4.10;;;1.40;;
7939;SDS011;4015;48.888;9.226;2023-05-16T15:03:18;1.43;;;1.20;;
7939;SDS011;4015;48.888;9.226;2023-05-16T15:05:44;3.50;;;1.30;;
7939;SDS011;4015;48.888;9.226;2023-05-16T15:08:09;2.30;;;1.50;;
7939;SDS011;4015;48.888;9.226;2023-05-16T15:10:35;3.33;;;1.50;;
7939;SDS011;4015;48.888;9.226;2023-05-16T15:13:00;2.43;;;1.20;;
7939;SDS011;4015;48.888;9.226;2023-05-16T15:15:26;2.50;;;1.40;;
7939;SDS011;4015;48.888;9.226;2023-05-16T15:17:52;2.33;;;1.33;;
7939;SDS011;4015;48.888;9.226;2023-05-16T15:20:18;2.47;;;1.60;;
7939;SDS011;4015;48.888;9.226;2023-05-16T15:22:44;2.70;;;1.50;;
7939;SDS011;4015;48.888;9.226;2023-05-16T15:25:09;1.60;;;1.30;;